KDLN

Dillon Airport

Dillon, Montana, USA
METAR KDLN 261253Z AUTO 20006KT 10SM CLR 08/07 A2991 RMK AO2 SLP092 T00830072
Observed Flight Rules
May-26 @ 12:53 UTC (42 minutes ago) Visual Flight Rules
Wind Visibility Clouds
200° at 6 knots 10 miles
  • Clear skies
Temperatures Readings
Current 8°C / 46°F
Dewpoint 7°C / 45°F
Humidity 93%
Altimeter 29.91" Hg
Pressure 1009.2 hPa
Elevation 1591
METAR KDLN 261253Z AUTO 20006KT 10SM CLR 08/07 A2991 RMK AO2 SLP092 T00830072
Observed Flight Rules
May-26 @ 12:53 UTC
(42 minutes ago)
VFR
Wind Visibility
200° at 6 knots 10 miles
Clouds
  • Clear skies
Temperature Dewpoint
8°C / 46°F 7°C / 45°F
Humidity Altimeter Pressure
93% 29.91" Hg 1009.2 hPa